sensor_id;sensor_type;location;lat;lon;timestamp;pressure;altitude;pressure_sealevel;temperature;humidity
72558;BME280;60583;50.094;8.748;2023-02-20T00:01:53;101606.72;;;8.99;75.00
72558;BME280;60583;50.094;8.748;2023-02-20T00:04:19;101572.03;;;8.75;75.07
72558;BME280;60583;50.094;8.748;2023-02-20T00:06:44;101586.22;;;8.92;75.33
72558;BME280;60583;50.094;8.748;2023-02-20T00:09:10;101593.00;;;8.78;76.80
72558;BME280;60583;50.094;8.748;2023-02-20T00:11:36;101571.78;;;8.61;76.51
72558;BME280;60583;50.094;8.748;2023-02-20T00:14:02;101576.91;;;8.62;76.58
72558;BME280;60583;50.094;8.748;2023-02-20T00:16:27;101552.50;;;8.41;76.53
72558;BME280;60583;50.094;8.748;2023-02-20T00:18:53;101594.97;;;8.51;77.85
72558;BME280;60583;50.094;8.748;2023-02-20T00:21:18;101582.94;;;8.47;77.42
72558;BME280;60583;50.094;8.748;2023-02-20T00:23:44;101580.97;;;8.49;78.18
72558;BME280;60583;50.094;8.748;2023-02-20T00:26:10;101580.16;;;8.48;77.83
72558;BME280;60583;50.094;8.748;2023-02-20T00:28:41;101593.72;;;8.63;77.45
72558;BME280;60583;50.094;8.748;2023-02-20T00:31:07;101589.22;;;8.63;78.08
72558;BME280;60583;50.094;8.748;2023-02-20T00:33:35;101592.25;;;8.68;77.74
72558;BME280;60583;50.094;8.748;2023-02-20T00:36:04;101554.63;;;8.55;77.39
72558;BME280;60583;50.094;8.748;2023-02-20T00:38:30;101581.75;;;8.67;77.00
72558;BME280;60583;50.094;8.748;2023-02-20T00:40:55;101584.72;;;8.64;77.57
72558;BME280;60583;50.094;8.748;2023-02-20T00:43:21;101585.88;;;8.61;77.02
72558;BME280;60583;50.094;8.748;2023-02-20T00:45:46;101581.69;;;8.59;77.63
72558;BME280;60583;50.094;8.748;2023-02-20T00:48:12;101560.91;;;8.54;76.96
72558;BME280;60583;50.094;8.748;2023-02-20T00:50:37;101583.06;;;8.63;77.43
72558;BME280;60583;50.094;8.748;2023-02-20T00:53:03;101570.41;;;8.57;77.02
72558;BME280;60583;50.094;8.748;2023-02-20T00:55:28;101571.13;;;8.67;77.40
72558;BME280;60583;50.094;8.748;2023-02-20T00:57:54;101584.59;;;8.65;76.98
72558;BME280;60583;50.094;8.748;2023-02-20T01:00:23;101559.88;;;8.47;77.62
72558;BME280;60583;50.094;8.748;2023-02-20T01:02:48;101588.81;;;8.50;78.32
72558;BME280;60583;50.094;8.748;2023-02-20T01:05:14;101589.94;;;8.48;78.53
72558;BME280;60583;50.094;8.748;2023-02-20T01:07:40;101568.72;;;8.30;78.97
72558;BME280;60583;50.094;8.748;2023-02-20T01:10:06;101583.44;;;8.42;79.44
72558;BME280;60583;50.094;8.748;2023-02-20T01:12:32;101586.09;;;8.42;79.59
72558;BME280;60583;50.094;8.748;2023-02-20T01:14:58;101542.00;;;8.14;79.61
72558;BME280;60583;50.094;8.748;2023-02-20T01:17:24;101560.81;;;8.20;79.98
72558;BME280;60583;50.094;8.748;2023-02-20T01:19:49;101576.22;;;8.34;79.64
72558;BME280;60583;50.094;8.748;2023-02-20T01:22:15;101587.03;;;8.33;79.99
72558;BME280;60583;50.094;8.748;2023-02-20T01:24:40;101579.19;;;8.14;80.80
72558;BME280;60583;50.094;8.748;2023-02-20T01:27:08;101561.72;;;8.11;81.02
72558;BME280;60583;50.094;8.748;2023-02-20T01:29:33;101582.59;;;8.24;80.45
72558;BME280;60583;50.094;8.748;2023-02-20T01:31:58;101589.66;;;8.15;80.60
72558;BME280;60583;50.094;8.748;2023-02-20T01:34:24;101559.84;;;8.04;80.02
72558;BME280;60583;50.094;8.748;2023-02-20T01:36:52;101575.47;;;8.07;81.14
72558;BME280;60583;50.094;8.748;2023-02-20T01:39:28;101529.03;;;7.76;81.19
72558;BME280;60583;50.094;8.748;2023-02-20T01:42:00;101575.41;;;7.99;82.11
72558;BME280;60583;50.094;8.748;2023-02-20T01:44:29;101545.22;;;7.82;82.26
72558;BME280;60583;50.094;8.748;2023-02-20T01:47:19;101576.69;;;7.95;81.94
72558;BME280;60583;50.094;8.748;2023-02-20T01:49:51;101571.31;;;7.87;82.94
72558;BME280;60583;50.094;8.748;2023-02-20T01:52:26;101568.66;;;7.87;83.22
72558;BME280;60583;50.094;8.748;2023-02-20T01:54:59;101553.84;;;7.66;83.94
72558;BME280;60583;50.094;8.748;2023-02-20T01:57:27;101560.38;;;7.72;83.52
72558;BME280;60583;50.094;8.748;2023-02-20T01:59:59;101550.22;;;7.50;85.42
72558;BME280;60583;50.094;8.748;2023-02-20T02:02:27;101479.97;;;7.09;84.32
72558;BME280;60583;50.094;8.748;2023-02-20T02:04:55;101532.59;;;7.49;84.60
72558;BME280;60583;50.094;8.748;2023-02-20T02:07:21;101539.66;;;7.13;85.97
72558;BME280;60583;50.094;8.748;2023-02-20T02:09:51;101538.25;;;6.91;87.45
72558;BME280;60583;50.094;8.748;2023-02-20T02:12:18;101524.31;;;6.89;87.29
72558;BME280;60583;50.094;8.748;2023-02-20T02:14:44;101526.75;;;7.00;86.57
72558;BME280;60583;50.094;8.748;2023-02-20T02:40:36;101522.84;;;6.95;83.53
72558;BME280;60583;50.094;8.748;2023-02-20T02:43:25;101537.13;;;6.94;83.79
72558;BME280;60583;50.094;8.748;2023-02-20T02:46:02;101522.63;;;6.88;83.94
72558;BME280;60583;50.094;8.748;2023-02-20T02:48:44;101515.81;;;6.86;83.92
72558;BME280;60583;50.094;8.748;2023-02-20T02:51:17;101518.63;;;6.84;84.70
72558;BME280;60583;50.094;8.748;2023-02-20T02:54:10;101512.31;;;6.85;84.93
72558;BME280;60583;50.094;8.748;2023-02-20T02:56:39;101507.56;;;6.89;83.79
72558;BME280;60583;50.094;8.748;2023-02-20T02:59:06;101511.72;;;6.91;83.42
72558;BME280;60583;50.094;8.748;2023-02-20T03:01:46;101491.38;;;6.82;83.70
72558;BME280;60583;50.094;8.748;2023-02-20T03:04:13;101521.59;;;6.99;82.56
72558;BME280;60583;50.094;8.748;2023-02-20T03:06:43;101510.44;;;6.95;82.59
72558;BME280;60583;50.094;8.748;2023-02-20T03:09:15;101488.75;;;6.82;81.96
72558;BME280;60583;50.094;8.748;2023-02-20T03:11:42;101508.25;;;6.91;82.64
72558;BME280;60583;50.094;8.748;2023-02-20T03:14:14;101509.66;;;6.85;82.81
72558;BME280;60583;50.094;8.748;2023-02-20T03:19:43;101479.47;;;6.69;82.84
72558;BME280;60583;50.094;8.748;2023-02-20T03:22:35;101517.03;;;6.91;81.77
72558;BME280;60583;50.094;8.748;2023-02-20T03:25:06;101514.34;;;7.01;81.82
72558;BME280;60583;50.094;8.748;2023-02-20T03:27:46;101515.69;;;7.05;81.37
72558;BME280;60583;50.094;8.748;2023-02-20T03:32:50;101495.47;;;7.04;80.63
72558;BME280;60583;50.094;8.748;2023-02-20T03:35:39;101469.03;;;6.94;80.07
72558;BME280;60583;50.094;8.748;2023-02-20T03:38:24;101503.53;;;7.12;79.60
72558;BME280;60583;50.094;8.748;2023-02-20T03:41:12;101463.00;;;6.92;79.72
72558;BME280;60583;50.094;8.748;2023-02-20T03:43:59;101518.09;;;7.26;79.81
72558;BME280;60583;50.094;8.748;2023-02-20T03:46:30;101458.44;;;6.85;79.96
72558;BME280;60583;50.094;8.748;2023-02-20T03:49:03;101509.91;;;7.19;79.16
72558;BME280;60583;50.094;8.748;2023-02-20T03:51:30;101505.28;;;7.21;78.87
72558;BME280;60583;50.094;8.748;2023-02-20T03:53:56;101515.22;;;7.19;78.81
72558;BME280;60583;50.094;8.748;2023-02-20T03:56:29;101526.34;;;7.23;78.85
72558;BME280;60583;50.094;8.748;2023-02-20T03:59:00;101521.88;;;7.23;78.36
72558;BME280;60583;50.094;8.748;2023-02-20T04:01:28;101499.09;;;7.03;77.66
72558;BME280;60583;50.094;8.748;2023-02-20T04:03:55;101543.47;;;7.28;77.90
72558;BME280;60583;50.094;8.748;2023-02-20T04:06:24;101501.22;;;6.99;77.65
72558;BME280;60583;50.094;8.748;2023-02-20T04:08:55;101514.03;;;7.04;78.30
72558;BME280;60583;50.094;8.748;2023-02-20T04:11:27;101487.13;;;6.99;78.37
72558;BME280;60583;50.094;8.748;2023-02-20T04:13:54;101483.09;;;6.95;78.24
72558;BME280;60583;50.094;8.748;2023-02-20T04:16:21;101513.25;;;7.21;78.10
72558;BME280;60583;50.094;8.748;2023-02-20T04:18:47;101510.75;;;7.20;78.14
72558;BME280;60583;50.094;8.748;2023-02-20T04:21:27;101501.41;;;7.16;78.58
72558;BME280;60583;50.094;8.748;2023-02-20T04:24:04;101504.91;;;7.16;79.31
72558;BME280;60583;50.094;8.748;2023-02-20T04:26:31;101473.78;;;6.91;79.19
72558;BME280;60583;50.094;8.748;2023-02-20T04:28:57;101479.97;;;6.82;79.83
72558;BME280;60583;50.094;8.748;2023-02-20T04:31:22;101487.38;;;6.78;79.89
72558;BME280;60583;50.094;8.748;2023-02-20T04:33:48;101526.00;;;7.08;79.50
72558;BME280;60583;50.094;8.748;2023-02-20T04:36:13;101512.13;;;6.96;79.38
72558;BME280;60583;50.094;8.748;2023-02-20T04:38:39;101496.41;;;6.85;79.72
72558;BME280;60583;50.094;8.748;2023-02-20T04:41:04;101504.91;;;6.89;80.17
72558;BME280;60583;50.094;8.748;2023-02-20T04:43:30;101482.63;;;6.82;80.89
72558;BME280;60583;50.094;8.748;2023-02-20T04:45:55;101487.22;;;6.80;81.25
72558;BME280;60583;50.094;8.748;2023-02-20T04:48:21;101509.94;;;6.92;81.33
72558;BME280;60583;50.094;8.748;2023-02-20T04:50:46;101508.94;;;6.93;81.98
72558;BME280;60583;50.094;8.748;2023-02-20T04:53:12;101483.59;;;6.81;82.24
72558;BME280;60583;50.094;8.748;2023-02-20T04:55:37;101495.88;;;6.82;82.04
72558;BME280;60583;50.094;8.748;2023-02-20T04:58:03;101502.84;;;6.83;82.83
72558;BME280;60583;50.094;8.748;2023-02-20T05:00:28;101518.41;;;6.95;83.22
72558;BME280;60583;50.094;8.748;2023-02-20T05:02:54;101521.22;;;6.94;82.55
72558;BME280;60583;50.094;8.748;2023-02-20T05:05:25;101518.16;;;6.89;83.06
72558;BME280;60583;50.094;8.748;2023-02-20T05:07:56;101517.47;;;6.87;83.89
72558;BME280;60583;50.094;8.748;2023-02-20T05:10:24;101519.13;;;6.88;83.58
72558;BME280;60583;50.094;8.748;2023-02-20T05:12:50;101514.84;;;6.87;84.06
72558;BME280;60583;50.094;8.748;2023-02-20T05:15:17;101513.38;;;6.92;84.27
72558;BME280;60583;50.094;8.748;2023-02-20T05:17:43;101513.25;;;6.94;84.61
72558;BME280;60583;50.094;8.748;2023-02-20T05:20:09;101476.16;;;6.67;84.32
72558;BME280;60583;50.094;8.748;2023-02-20T05:22:35;101469.16;;;6.66;84.76
72558;BME280;60583;50.094;8.748;2023-02-20T05:25:00;101498.22;;;6.85;85.39
72558;BME280;60583;50.094;8.748;2023-02-20T05:27:26;101501.19;;;6.82;85.83
72558;BME280;60583;50.094;8.748;2023-02-20T05:29:54;101489.47;;;6.75;85.27
72558;BME280;60583;50.094;8.748;2023-02-20T05:32:22;101506.56;;;6.90;85.21
72558;BME280;60583;50.094;8.748;2023-02-20T05:34:47;101489.19;;;6.78;85.55
72558;BME280;60583;50.094;8.748;2023-02-20T05:37:14;101460.59;;;6.54;86.24
72558;BME280;60583;50.094;8.748;2023-02-20T05:39:40;101492.84;;;6.77;86.11
72558;BME280;60583;50.094;8.748;2023-02-20T05:42:06;101504.13;;;6.79;85.98
72558;BME280;60583;50.094;8.748;2023-02-20T05:44:33;101511.78;;;6.82;85.96
72558;BME280;60583;50.094;8.748;2023-02-20T05:46:59;101499.09;;;6.76;85.64
72558;BME280;60583;50.094;8.748;2023-02-20T05:49:24;101489.06;;;6.70;86.15
72558;BME280;60583;50.094;8.748;2023-02-20T05:51:50;101465.44;;;6.59;86.00
72558;BME280;60583;50.094;8.748;2023-02-20T05:54:18;101497.81;;;6.80;85.98
72558;BME280;60583;50.094;8.748;2023-02-20T05:56:45;101493.91;;;6.84;86.29
72558;BME280;60583;50.094;8.748;2023-02-20T05:59:12;101495.81;;;6.91;86.15
72558;BME280;60583;50.094;8.748;2023-02-20T06:01:38;101490.88;;;6.79;85.99
72558;BME280;60583;50.094;8.748;2023-02-20T06:04:04;101501.56;;;6.87;85.93
72558;BME280;60583;50.094;8.748;2023-02-20T06:06:40;101477.91;;;6.76;86.05
72558;BME280;60583;50.094;8.748;2023-02-20T06:09:08;101484.72;;;6.78;86.45
72558;BME280;60583;50.094;8.748;2023-02-20T06:11:39;101460.13;;;6.59;86.48
72558;BME280;60583;50.094;8.748;2023-02-20T06:14:06;101482.63;;;6.82;86.46
72558;BME280;60583;50.094;8.748;2023-02-20T06:16:33;101480.56;;;6.76;86.37
72558;BME280;60583;50.094;8.748;2023-02-20T06:19:00;101477.63;;;6.79;86.02
72558;BME280;60583;50.094;8.748;2023-02-20T06:21:26;101441.03;;;6.55;86.40
72558;BME280;60583;50.094;8.748;2023-02-20T06:23:53;101450.91;;;6.63;86.32
72558;BME280;60583;50.094;8.748;2023-02-20T06:26:22;101440.19;;;6.55;86.09
72558;BME280;60583;50.094;8.748;2023-02-20T06:28:47;101432.84;;;6.49;86.85
72558;BME280;60583;50.094;8.748;2023-02-20T06:31:28;101433.53;;;6.51;86.15
72558;BME280;60583;50.094;8.748;2023-02-20T06:33:53;101439.13;;;6.48;86.86
72558;BME280;60583;50.094;8.748;2023-02-20T06:36:27;101478.34;;;6.71;86.85
72558;BME280;60583;50.094;8.748;2023-02-20T06:38:54;101438.00;;;6.50;87.00
72558;BME280;60583;50.094;8.748;2023-02-20T06:41:19;101460.94;;;6.69;85.94
72558;BME280;60583;50.094;8.748;2023-02-20T06:43:45;101477.63;;;6.79;86.02
72558;BME280;60583;50.094;8.748;2023-02-20T06:46:10;101483.31;;;6.84;86.30
72558;BME280;60583;50.094;8.748;2023-02-20T06:48:46;101461.44;;;6.72;85.57
72558;BME280;60583;50.094;8.748;2023-02-20T06:51:14;101482.31;;;6.85;86.01
72558;BME280;60583;50.094;8.748;2023-02-20T06:53:40;101481.63;;;6.83;86.16
72558;BME280;60583;50.094;8.748;2023-02-20T06:56:13;101489.84;;;6.89;85.66
72558;BME280;60583;50.094;8.748;2023-02-20T06:58:40;101491.09;;;6.85;85.85
72558;BME280;60583;50.094;8.748;2023-02-20T07:01:07;101492.53;;;6.80;86.37
72558;BME280;60583;50.094;8.748;2023-02-20T07:03:32;101490.97;;;6.87;85.54
72558;BME280;60583;50.094;8.748;2023-02-20T07:05:58;101451.06;;;6.61;86.27
72558;BME280;60583;50.094;8.748;2023-02-20T07:08:23;101485.97;;;6.84;85.68
72558;BME280;60583;50.094;8.748;2023-02-20T07:10:49;101486.88;;;6.92;85.08
72558;BME280;60583;50.094;8.748;2023-02-20T07:13:14;101476.63;;;6.80;85.69
72558;BME280;60583;50.094;8.748;2023-02-20T07:15:39;101468.09;;;6.86;85.29
72558;BME280;60583;50.094;8.748;2023-02-20T07:18:05;101498.31;;;6.93;85.11
72558;BME280;60583;50.094;8.748;2023-02-20T07:20:30;101465.22;;;6.70;85.35
72558;BME280;60583;50.094;8.748;2023-02-20T07:22:56;101496.22;;;6.96;84.73
72558;BME280;60583;50.094;8.748;2023-02-20T07:25:21;101492.34;;;6.91;85.19
72558;BME280;60583;50.094;8.748;2023-02-20T07:27:47;101447.06;;;6.75;84.66
72558;BME280;60583;50.094;8.748;2023-02-20T07:30:12;101493.22;;;7.09;84.54
72558;BME280;60583;50.094;8.748;2023-02-20T07:32:38;101493.00;;;7.20;84.41
72558;BME280;60583;50.094;8.748;2023-02-20T07:35:03;101493.59;;;7.14;84.40
72558;BME280;60583;50.094;8.748;2023-02-20T07:37:29;101482.59;;;7.09;83.89
72558;BME280;60583;50.094;8.748;2023-02-20T07:39:55;101488.50;;;7.03;84.81
72558;BME280;60583;50.094;8.748;2023-02-20T07:42:20;101413.34;;;6.67;84.42
72558;BME280;60583;50.094;8.748;2023-02-20T07:44:46;101489.22;;;7.23;83.94
72558;BME280;60583;50.094;8.748;2023-02-20T07:47:13;101482.84;;;7.33;83.94
72558;BME280;60583;50.094;8.748;2023-02-20T07:49:38;101471.50;;;7.41;83.12
72558;BME280;60583;50.094;8.748;2023-02-20T07:52:04;101487.56;;;7.57;83.20
72558;BME280;60583;50.094;8.748;2023-02-20T07:54:29;101492.50;;;7.69;81.71
72558;BME280;60583;50.094;8.748;2023-02-20T07:56:55;101463.59;;;7.66;82.52
72558;BME280;60583;50.094;8.748;2023-02-20T07:59:21;101459.72;;;7.79;80.93
72558;BME280;60583;50.094;8.748;2023-02-20T08:01:47;101479.09;;;7.97;81.06
72558;BME280;60583;50.094;8.748;2023-02-20T08:04:12;101435.16;;;7.77;80.05
72558;BME280;60583;50.094;8.748;2023-02-20T08:06:38;101432.66;;;8.01;80.20
72558;BME280;60583;50.094;8.748;2023-02-20T08:09:03;101467.47;;;8.41;79.33
72558;BME280;60583;50.094;8.748;2023-02-20T08:11:33;101480.09;;;8.21;79.38
72558;BME280;60583;50.094;8.748;2023-02-20T08:13:58;101454.66;;;7.93;81.14
72558;BME280;60583;50.094;8.748;2023-02-20T08:16:24;101467.09;;;8.10;79.98
72558;BME280;60583;50.094;8.748;2023-02-20T08:18:51;101461.44;;;8.31;80.23
72558;BME280;60583;50.094;8.748;2023-02-20T08:21:17;101466.59;;;8.32;79.69
72558;BME280;60583;50.094;8.748;2023-02-20T08:23:43;101463.22;;;8.48;78.78
72558;BME280;60583;50.094;8.748;2023-02-20T08:26:08;101432.13;;;8.49;77.82
72558;BME280;60583;50.094;8.748;2023-02-20T08:28:34;101448.63;;;8.60;78.00
72558;BME280;60583;50.094;8.748;2023-02-20T08:30:59;101427.34;;;8.52;78.47
72558;BME280;60583;50.094;8.748;2023-02-20T08:33:25;101440.34;;;8.63;78.63
72558;BME280;60583;50.094;8.748;2023-02-20T08:35:50;101416.66;;;8.44;77.58
72558;BME280;60583;50.094;8.748;2023-02-20T08:38:35;101442.34;;;8.69;77.91
72558;BME280;60583;50.094;8.748;2023-02-20T08:41:06;101445.81;;;9.04;77.53
72558;BME280;60583;50.094;8.748;2023-02-20T08:43:32;101447.47;;;9.05;76.84
72558;BME280;60583;50.094;8.748;2023-02-20T08:45:58;101356.94;;;8.72;77.19
72558;BME280;60583;50.094;8.748;2023-02-20T08:48:24;101414.56;;;9.22;76.08
72558;BME280;60583;50.094;8.748;2023-02-20T08:50:50;101408.09;;;9.16;75.63
72558;BME280;60583;50.094;8.748;2023-02-20T08:53:15;101438.91;;;9.51;75.40
72558;BME280;60583;50.094;8.748;2023-02-20T08:55:41;101433.03;;;9.39;75.94
72558;BME280;60583;50.094;8.748;2023-02-20T08:58:07;101432.72;;;9.42;75.92
72558;BME280;60583;50.094;8.748;2023-02-20T09:00:33;101416.91;;;9.33;76.17
72558;BME280;60583;50.094;8.748;2023-02-20T09:02:58;101421.22;;;9.42;75.29
72558;BME280;60583;50.094;8.748;2023-02-20T09:05:24;101427.41;;;9.58;74.79
72558;BME280;60583;50.094;8.748;2023-02-20T09:07:50;101428.22;;;9.67;74.69
72558;BME280;60583;50.094;8.748;2023-02-20T09:10:17;101419.91;;;9.86;74.26
72558;BME280;60583;50.094;8.748;2023-02-20T09:12:43;101428.22;;;9.91;74.39
72558;BME280;60583;50.094;8.748;2023-02-20T09:15:09;101408.09;;;9.73;74.29
72558;BME280;60583;50.094;8.748;2023-02-20T09:17:34;101444.03;;;10.09;73.09
72558;BME280;60583;50.094;8.748;2023-02-20T09:20:00;101437.53;;;10.11;72.94
72558;BME280;60583;50.094;8.748;2023-02-20T09:22:25;101392.41;;;10.02;72.66
72558;BME280;60583;50.094;8.748;2023-02-20T09:24:52;101427.75;;;10.51;72.24
72558;BME280;60583;50.094;8.748;2023-02-20T09:27:18;101427.75;;;10.59;72.03
72558;BME280;60583;50.094;8.748;2023-02-20T09:29:45;101433.53;;;10.62;71.49
72558;BME280;60583;50.094;8.748;2023-02-20T09:32:12;101434.94;;;10.89;70.41
72558;BME280;60583;50.094;8.748;2023-02-20T09:34:38;101415.94;;;10.84;70.26
72558;BME280;60583;50.094;8.748;2023-02-20T09:37:03;101422.34;;;10.98;70.24
72558;BME280;60583;50.094;8.748;2023-02-20T09:39:29;101407.34;;;11.05;69.21
72558;BME280;60583;50.094;8.748;2023-02-20T09:47:41;101418.22;;;11.18;68.97
72558;BME280;60583;50.094;8.748;2023-02-20T09:50:15;101437.13;;;11.39;68.33
72558;BME280;60583;50.094;8.748;2023-02-20T09:52:47;101417.72;;;11.45;67.69
72558;BME280;60583;50.094;8.748;2023-02-20T09:55:18;101415.81;;;11.53;68.08
72558;BME280;60583;50.094;8.748;2023-02-20T09:57:47;101432.88;;;11.52;68.36
72558;BME280;60583;50.094;8.748;2023-02-20T10:00:29;101404.00;;;11.48;67.53
72558;BME280;60583;50.094;8.748;2023-02-20T10:03:14;101399.41;;;11.79;66.05
72558;BME280;60583;50.094;8.748;2023-02-20T10:05:43;101378.63;;;12.33;64.44
72558;BME280;60583;50.094;8.748;2023-02-20T10:08:10;101406.06;;;13.21;61.90
72558;BME280;60583;50.094;8.748;2023-02-20T10:10:39;101408.69;;;13.85;60.31
72558;BME280;60583;50.094;8.748;2023-02-20T10:15:53;101406.38;;;15.45;55.44
72558;BME280;60583;50.094;8.748;2023-02-20T10:21:17;101370.78;;;16.73;51.13
72558;BME280;60583;50.094;8.748;2023-02-20T10:23:47;101402.72;;;17.38;49.72
72558;BME280;60583;50.094;8.748;2023-02-20T10:26:20;101402.13;;;17.36;49.50
72558;BME280;60583;50.094;8.748;2023-02-20T10:28:48;101383.28;;;18.65;46.45
72558;BME280;60583;50.094;8.748;2023-02-20T10:34:02;101369.00;;;18.03;46.06
72558;BME280;60583;50.094;8.748;2023-02-20T10:36:33;101381.72;;;18.75;45.09
72558;BME280;60583;50.094;8.748;2023-02-20T10:39:09;101395.94;;;18.10;46.03
72558;BME280;60583;50.094;8.748;2023-02-20T10:41:55;101387.00;;;18.45;45.75
72558;BME280;60583;50.094;8.748;2023-02-20T10:44:32;101340.44;;;17.46;46.02
72558;BME280;60583;50.094;8.748;2023-02-20T10:47:21;101359.59;;;18.78;44.36
72558;BME280;60583;50.094;8.748;2023-02-20T10:49:51;101361.53;;;19.60;42.72
72558;BME280;60583;50.094;8.748;2023-02-20T10:52:27;101353.50;;;20.47;40.75
72558;BME280;60583;50.094;8.748;2023-02-20T10:55:02;101361.41;;;20.37;40.66
72558;BME280;60583;50.094;8.748;2023-02-20T10:58:02;101369.66;;;20.81;39.69
72558;BME280;60583;50.094;8.748;2023-02-20T11:03:05;101354.50;;;21.92;37.07
72558;BME280;60583;50.094;8.748;2023-02-20T11:05:40;101350.88;;;21.36;37.53
72558;BME280;60583;50.094;8.748;2023-02-20T11:08:07;101328.66;;;21.56;37.37
72558;BME280;60583;50.094;8.748;2023-02-20T11:10:32;101335.88;;;21.84;36.70
72558;BME280;60583;50.094;8.748;2023-02-20T11:13:00;101311.09;;;22.18;36.19
72558;BME280;60583;50.094;8.748;2023-02-20T11:15:31;101304.53;;;22.14;35.84
72558;BME280;60583;50.094;8.748;2023-02-20T11:17:57;101325.16;;;22.32;35.66
72558;BME280;60583;50.094;8.748;2023-02-20T11:23:00;101249.72;;;21.08;36.69
72558;BME280;60583;50.094;8.748;2023-02-20T11:25:28;101291.88;;;21.15;36.88
72558;BME280;60583;50.094;8.748;2023-02-20T11:27:59;101286.88;;;22.60;34.63
72558;BME280;60583;50.094;8.748;2023-02-20T11:33:03;101269.63;;;22.50;34.34
72558;BME280;60583;50.094;8.748;2023-02-20T11:35:37;101270.34;;;22.62;34.13
72558;BME280;60583;50.094;8.748;2023-02-20T11:38:18;101261.91;;;21.60;35.29
72558;BME280;60583;50.094;8.748;2023-02-20T11:43:24;101236.38;;;21.39;35.86
72558;BME280;60583;50.094;8.748;2023-02-20T11:46:12;101237.19;;;21.56;36.44
72558;BME280;60583;50.094;8.748;2023-02-20T11:48:57;101224.50;;;21.62;35.24
72558;BME280;60583;50.094;8.748;2023-02-20T11:54:27;101239.75;;;22.28;34.12
72558;BME280;60583;50.094;8.748;2023-02-20T11:59:26;101227.25;;;22.05;34.69
72558;BME280;60583;50.094;8.748;2023-02-20T12:01:52;101217.31;;;21.34;35.39
72558;BME280;60583;50.094;8.748;2023-02-20T12:04:20;101223.19;;;22.08;34.11
72558;BME280;60583;50.094;8.748;2023-02-20T12:06:46;101233.91;;;22.41;33.51
72558;BME280;60583;50.094;8.748;2023-02-20T12:09:14;101222.22;;;21.37;34.37
72558;BME280;60583;50.094;8.748;2023-02-20T12:11:41;101200.44;;;21.32;34.36
72558;BME280;60583;50.094;8.748;2023-02-20T12:14:12;101225.31;;;21.62;34.18
72558;BME280;60583;50.094;8.748;2023-02-20T12:30:16;101192.97;;;22.26;33.21
72558;BME280;60583;50.094;8.748;2023-02-20T12:32:58;101174.81;;;22.05;33.27
72558;BME280;60583;50.094;8.748;2023-02-20T12:35:35;101132.25;;;20.90;34.63
72558;BME280;60583;50.094;8.748;2023-02-20T12:38:24;101186.97;;;22.51;33.26
72558;BME280;60583;50.094;8.748;2023-02-20T12:41:02;101193.47;;;22.23;33.52
72558;BME280;60583;50.094;8.748;2023-02-20T12:46:30;101169.38;;;22.58;32.95
72558;BME280;60583;50.094;8.748;2023-02-20T12:52:02;101158.06;;;23.40;31.22
72558;BME280;60583;50.094;8.748;2023-02-20T12:57:23;101174.78;;;22.00;33.32
72558;BME280;60583;50.094;8.748;2023-02-20T12:59:58;101171.00;;;21.62;33.98
72558;BME280;60583;50.094;8.748;2023-02-20T13:02:32;101152.09;;;21.89;33.49
72558;BME280;60583;50.094;8.748;2023-02-20T13:05:01;101175.34;;;22.55;32.57
72558;BME280;60583;50.094;8.748;2023-02-20T13:07:36;101164.88;;;22.42;32.76
72558;BME280;60583;50.094;8.748;2023-02-20T13:10:21;101123.41;;;22.57;32.22
72558;BME280;60583;50.094;8.748;2023-02-20T13:12:49;101142.66;;;21.75;33.98
72558;BME280;60583;50.094;8.748;2023-02-20T13:15:32;101134.59;;;22.60;32.54
72558;BME280;60583;50.094;8.748;2023-02-20T13:18:13;101101.25;;;22.43;31.83
72558;BME280;60583;50.094;8.748;2023-02-20T13:20:56;101113.47;;;22.67;30.84
72558;BME280;60583;50.094;8.748;2023-02-20T13:23:27;101107.09;;;22.57;31.10
72558;BME280;60583;50.094;8.748;2023-02-20T13:25:54;101112.47;;;21.72;31.48
72558;BME280;60583;50.094;8.748;2023-02-20T13:28:36;101073.44;;;21.29;32.04
72558;BME280;60583;50.094;8.748;2023-02-20T13:31:08;101094.13;;;20.30;34.56
72558;BME280;60583;50.094;8.748;2023-02-20T13:33:33;101057.97;;;19.00;36.63
72558;BME280;60583;50.094;8.748;2023-02-20T13:36:01;101117.91;;;18.33;38.71
72558;BME280;60583;50.094;8.748;2023-02-20T13:38:27;101078.69;;;17.05;41.61
72558;BME280;60583;50.094;8.748;2023-02-20T13:54:09;101065.00;;;15.45;45.67
72558;BME280;60583;50.094;8.748;2023-02-20T13:59:09;101025.16;;;15.16;46.76
72558;BME280;60583;50.094;8.748;2023-02-20T14:04:22;101036.03;;;14.77;48.15
72558;BME280;60583;50.094;8.748;2023-02-20T14:06:52;101028.84;;;14.51;48.56
72558;BME280;60583;50.094;8.748;2023-02-20T14:09:21;101016.84;;;14.21;48.95
72558;BME280;60583;50.094;8.748;2023-02-20T14:11:49;101041.44;;;14.44;49.36
72558;BME280;60583;50.094;8.748;2023-02-20T14:14:26;101036.50;;;14.47;49.22
72558;BME280;60583;50.094;8.748;2023-02-20T14:17:05;101018.56;;;14.35;50.19
72558;BME280;60583;50.094;8.748;2023-02-20T14:19:35;100997.09;;;14.35;49.01
72558;BME280;60583;50.094;8.748;2023-02-20T14:22:24;101020.38;;;14.41;49.54
72558;BME280;60583;50.094;8.748;2023-02-20T14:27:33;100984.06;;;14.19;49.75
72558;BME280;60583;50.094;8.748;2023-02-20T14:30:06;100968.78;;;13.86;49.88
72558;BME280;60583;50.094;8.748;2023-02-20T14:32:34;101001.59;;;13.88;50.11
72558;BME280;60583;50.094;8.748;2023-02-20T14:35:08;100981.81;;;13.89;49.95
72558;BME280;60583;50.094;8.748;2023-02-20T14:37:51;101001.59;;;14.15;49.82
72558;BME280;60583;50.094;8.748;2023-02-20T14:40:39;101002.84;;;14.19;49.51
72558;BME280;60583;50.094;8.748;2023-02-20T14:43:17;100994.56;;;14.14;50.30
72558;BME280;60583;50.094;8.748;2023-02-20T14:45:45;100978.88;;;13.97;50.20
72558;BME280;60583;50.094;8.748;2023-02-20T14:48:26;100980.13;;;14.08;50.49
72558;BME280;60583;50.094;8.748;2023-02-20T14:53:36;100980.56;;;13.92;50.67
72558;BME280;60583;50.094;8.748;2023-02-20T14:56:16;100994.16;;;14.03;50.90